sensor_id;sensor_type;location;lat;lon;timestamp;noise_LAeq;noise_LA_min;noise_LA_max;noise_LA01;noise_LA95
60031;Laerm;45901;47.600;9.890;2023-02-28T00:01:22;40.56;38.37;42.16;;
60031;Laerm;45901;47.600;9.890;2023-02-28T00:03:49;40.55;38.81;42.29;;
60031;Laerm;45901;47.600;9.890;2023-02-28T00:06:17;40.55;38.67;42.22;;
60031;Laerm;45901;47.600;9.890;2023-02-28T00:08:44;40.54;38.52;42.03;;
60031;Laerm;45901;47.600;9.890;2023-02-28T00:11:14;40.54;38.67;42.09;;
60031;Laerm;45901;47.600;9.890;2023-02-28T00:13:44;40.55;38.52;44.11;;
60031;Laerm;45901;47.600;9.890;2023-02-28T00:16:14;40.54;38.81;42.03;;
60031;Laerm;45901;47.600;9.890;2023-02-28T00:18:43;40.52;38.52;42.16;;
60031;Laerm;45901;47.600;9.890;2023-02-28T00:21:10;40.53;38.37;42.03;;
60031;Laerm;45901;47.600;9.890;2023-02-28T00:23:38;40.54;38.67;42.29;;
60031;Laerm;45901;47.600;9.890;2023-02-28T00:26:05;40.53;38.21;42.06;;
60031;Laerm;45901;47.600;9.890;2023-02-28T00:28:33;40.52;38.37;42.03;;
60031;Laerm;45901;47.600;9.890;2023-02-28T00:31:00;40.56;38.37;44.43;;
60031;Laerm;45901;47.600;9.890;2023-02-28T00:33:27;40.53;38.67;42.03;;
60031;Laerm;45901;47.600;9.890;2023-02-28T00:36:04;40.53;37.88;41.96;;
60031;Laerm;45901;47.600;9.890;2023-02-28T00:38:32;40.52;38.05;41.96;;
60031;Laerm;45901;47.600;9.890;2023-02-28T00:40:59;40.52;38.81;42.09;;
60031;Laerm;45901;47.600;9.890;2023-02-28T00:43:31;40.51;38.67;42.29;;
60031;Laerm;45901;47.600;9.890;2023-02-28T00:45:59;40.56;37.70;44.43;;
60031;Laerm;45901;47.600;9.890;2023-02-28T00:48:26;40.54;38.52;42.03;;
60031;Laerm;45901;47.600;9.890;2023-02-28T00:50:53;40.53;38.81;41.96;;
60031;Laerm;45901;47.600;9.890;2023-02-28T00:53:22;40.53;38.37;42.35;;
60031;Laerm;45901;47.600;9.890;2023-02-28T00:55:49;40.52;38.37;41.96;;
60031;Laerm;45901;47.600;9.890;2023-02-28T00:58:17;40.51;38.05;41.82;;
60031;Laerm;45901;47.600;9.890;2023-02-28T01:00:44;40.65;38.37;44.94;;
60031;Laerm;45901;47.600;9.890;2023-02-28T01:03:15;40.52;38.37;42.03;;
60031;Laerm;45901;47.600;9.890;2023-02-28T01:05:44;40.51;38.37;41.96;;
60031;Laerm;45901;47.600;9.890;2023-02-28T01:08:11;40.52;38.05;42.09;;
60031;Laerm;45901;47.600;9.890;2023-02-28T01:10:40;40.51;37.88;42.16;;
60031;Laerm;45901;47.600;9.890;2023-02-28T01:13:08;40.51;38.37;41.96;;
60031;Laerm;45901;47.600;9.890;2023-02-28T01:15:35;40.54;38.37;43.58;;
60031;Laerm;45901;47.600;9.890;2023-02-28T01:18:03;40.51;38.67;42.09;;
60031;Laerm;45901;47.600;9.890;2023-02-28T01:20:30;40.52;38.52;42.03;;
60031;Laerm;45901;47.600;9.890;2023-02-28T01:22:57;40.51;38.67;42.41;;
60031;Laerm;45901;47.600;9.890;2023-02-28T01:25:24;40.52;38.52;42.03;;
60031;Laerm;45901;47.600;9.890;2023-02-28T01:27:53;40.52;38.52;42.09;;
60031;Laerm;45901;47.600;9.890;2023-02-28T01:30:20;40.56;38.52;45.30;;
60031;Laerm;45901;47.600;9.890;2023-02-28T01:32:47;40.51;38.52;41.89;;
60031;Laerm;45901;47.600;9.890;2023-02-28T01:35:17;40.52;38.52;42.29;;
60031;Laerm;45901;47.600;9.890;2023-02-28T01:37:44;40.51;38.52;42.09;;
60031;Laerm;45901;47.600;9.890;2023-02-28T01:40:13;40.51;38.37;41.96;;
60031;Laerm;45901;47.600;9.890;2023-02-28T01:42:40;40.51;38.52;42.03;;
60031;Laerm;45901;47.600;9.890;2023-02-28T01:45:22;40.57;38.67;44.95;;
60031;Laerm;45901;47.600;9.890;2023-02-28T01:47:52;40.53;38.67;42.24;;
60031;Laerm;45901;47.600;9.890;2023-02-28T01:50:24;40.52;38.37;42.16;;
60031;Laerm;45901;47.600;9.890;2023-02-28T01:52:55;40.52;38.52;42.03;;
60031;Laerm;45901;47.600;9.890;2023-02-28T01:55:24;40.50;38.67;42.09;;
60031;Laerm;45901;47.600;9.890;2023-02-28T01:57:58;40.50;38.52;42.03;;
60031;Laerm;45901;47.600;9.890;2023-02-28T02:00:30;40.67;38.37;44.87;;
60031;Laerm;45901;47.600;9.890;2023-02-28T02:03:00;40.52;38.05;42.09;;
60031;Laerm;45901;47.600;9.890;2023-02-28T02:05:31;40.52;38.52;43.14;;
60031;Laerm;45901;47.600;9.890;2023-02-28T02:08:04;40.50;38.21;42.03;;
60031;Laerm;45901;47.600;9.890;2023-02-28T02:10:34;40.49;38.37;42.09;;
60031;Laerm;45901;47.600;9.890;2023-02-28T02:13:15;40.49;38.37;42.03;;
60031;Laerm;45901;47.600;9.890;2023-02-28T02:15:55;40.53;38.81;45.39;;
60031;Laerm;45901;47.600;9.890;2023-02-28T02:18:34;40.56;38.52;42.13;;
60031;Laerm;45901;47.600;9.890;2023-02-28T02:21:47;40.56;38.67;42.03;;
60031;Laerm;45901;47.600;9.890;2023-02-28T02:24:55;40.52;38.37;42.29;;
60031;Laerm;45901;47.600;9.890;2023-02-28T02:27:38;40.52;38.37;42.22;;
60031;Laerm;45901;47.600;9.890;2023-02-28T02:30:33;40.52;38.52;44.47;;
60031;Laerm;45901;47.600;9.890;2023-02-28T02:36:25;40.52;38.52;42.09;;
60031;Laerm;45901;47.600;9.890;2023-02-28T02:39:02;40.50;38.05;42.09;;
60031;Laerm;45901;47.600;9.890;2023-02-28T02:41:36;40.58;38.37;43.77;;
60031;Laerm;45901;47.600;9.890;2023-02-28T02:44:11;40.59;38.37;44.58;;
60031;Laerm;45901;47.600;9.890;2023-02-28T02:46:43;40.62;38.37;43.86;;
60031;Laerm;45901;47.600;9.890;2023-02-28T02:49:16;40.59;38.21;44.35;;
60031;Laerm;45901;47.600;9.890;2023-02-28T02:51:48;40.50;38.67;42.98;;
60031;Laerm;45901;47.600;9.890;2023-02-28T02:54:22;40.49;38.21;42.41;;
60031;Laerm;45901;47.600;9.890;2023-02-28T02:56:58;40.54;38.52;43.29;;
60031;Laerm;45901;47.600;9.890;2023-02-28T02:59:28;40.72;38.52;45.45;;
60031;Laerm;45901;47.600;9.890;2023-02-28T03:02:01;40.69;38.81;43.19;;
60031;Laerm;45901;47.600;9.890;2023-02-28T03:04:34;41.27;38.81;45.42;;
60031;Laerm;45901;47.600;9.890;2023-02-28T03:07:06;40.64;38.52;42.88;;
60031;Laerm;45901;47.600;9.890;2023-02-28T03:09:34;41.09;38.95;44.94;;
60031;Laerm;45901;47.600;9.890;2023-02-28T03:12:04;40.77;38.52;44.42;;
60031;Laerm;45901;47.600;9.890;2023-02-28T03:14:43;40.54;38.21;43.34;;
60031;Laerm;45901;47.600;9.890;2023-02-28T03:17:31;40.49;38.52;42.09;;
60031;Laerm;45901;47.600;9.890;2023-02-28T03:20:11;40.49;38.05;41.89;;
60031;Laerm;45901;47.600;9.890;2023-02-28T03:22:52;40.50;38.52;41.96;;
60031;Laerm;45901;47.600;9.890;2023-02-28T03:25:33;40.51;38.05;44.35;;
60031;Laerm;45901;47.600;9.890;2023-02-28T03:28:11;40.52;38.37;42.22;;
60031;Laerm;45901;47.600;9.890;2023-02-28T03:30:49;40.50;38.37;44.15;;
60031;Laerm;45901;47.600;9.890;2023-02-28T03:33:21;40.47;38.37;41.96;;
60031;Laerm;45901;47.600;9.890;2023-02-28T03:35:54;40.48;38.21;42.03;;
60031;Laerm;45901;47.600;9.890;2023-02-28T03:38:29;41.19;38.37;48.23;;
60031;Laerm;45901;47.600;9.890;2023-02-28T03:41:05;40.45;38.21;41.89;;
60031;Laerm;45901;47.600;9.890;2023-02-28T03:43:36;40.45;38.37;42.29;;
60031;Laerm;45901;47.600;9.890;2023-02-28T03:46:10;40.55;38.67;44.03;;
60031;Laerm;45901;47.600;9.890;2023-02-28T03:48:43;40.45;38.52;42.03;;
60031;Laerm;45901;47.600;9.890;2023-02-28T03:51:15;40.43;38.32;42.03;;
60031;Laerm;45901;47.600;9.890;2023-02-28T03:53:49;40.46;38.37;42.03;;
60031;Laerm;45901;47.600;9.890;2023-02-28T03:56:21;40.46;38.37;41.96;;
60031;Laerm;45901;47.600;9.890;2023-02-28T03:58:54;40.54;38.37;44.73;;
60031;Laerm;45901;47.600;9.890;2023-02-28T04:01:26;40.54;38.52;44.31;;
60031;Laerm;45901;47.600;9.890;2023-02-28T04:03:54;40.45;38.21;41.96;;
60031;Laerm;45901;47.600;9.890;2023-02-28T04:06:23;41.04;38.67;50.79;;
60031;Laerm;45901;47.600;9.890;2023-02-28T04:08:52;40.74;38.52;43.99;;
60031;Laerm;45901;47.600;9.890;2023-02-28T04:11:23;40.61;38.37;45.69;;
60031;Laerm;45901;47.600;9.890;2023-02-28T04:13:54;40.46;38.21;44.15;;
60031;Laerm;45901;47.600;9.890;2023-02-28T04:16:22;40.46;38.37;41.96;;
60031;Laerm;45901;47.600;9.890;2023-02-28T04:18:49;40.45;38.52;42.09;;
60031;Laerm;45901;47.600;9.890;2023-02-28T04:21:16;40.47;38.52;42.09;;
60031;Laerm;45901;47.600;9.890;2023-02-28T04:23:46;40.48;38.05;42.03;;
60031;Laerm;45901;47.600;9.890;2023-02-28T04:26:14;40.48;38.67;42.16;;
60031;Laerm;45901;47.600;9.890;2023-02-28T04:28:41;40.45;38.52;43.97;;
60031;Laerm;45901;47.600;9.890;2023-02-28T04:31:09;40.45;38.52;43.39;;
60031;Laerm;45901;47.600;9.890;2023-02-28T04:33:36;40.47;38.37;42.41;;
60031;Laerm;45901;47.600;9.890;2023-02-28T04:36:06;40.49;38.37;42.03;;
60031;Laerm;45901;47.600;9.890;2023-02-28T04:38:35;40.50;38.21;42.03;;
60031;Laerm;45901;47.600;9.890;2023-02-28T04:41:03;40.47;38.60;42.03;;
60031;Laerm;45901;47.600;9.890;2023-02-28T04:43:32;40.53;38.05;42.16;;
60031;Laerm;45901;47.600;9.890;2023-02-28T04:46:02;40.61;38.52;44.51;;
60031;Laerm;45901;47.600;9.890;2023-02-28T04:48:32;40.44;38.37;42.16;;
60031;Laerm;45901;47.600;9.890;2023-02-28T04:51:00;40.50;38.52;45.28;;
60031;Laerm;45901;47.600;9.890;2023-02-28T04:53:28;40.51;38.67;46.10;;
60031;Laerm;45901;47.600;9.890;2023-02-28T04:55:56;40.52;38.67;43.81;;
60031;Laerm;45901;47.600;9.890;2023-02-28T04:58:24;40.62;38.52;42.98;;
60031;Laerm;45901;47.600;9.890;2023-02-28T05:00:53;40.66;38.32;44.97;;
60031;Laerm;45901;47.600;9.890;2023-02-28T05:03:21;40.56;38.52;42.76;;
60031;Laerm;45901;47.600;9.890;2023-02-28T05:05:48;40.47;38.37;42.16;;
60031;Laerm;45901;47.600;9.890;2023-02-28T05:08:15;40.45;38.52;42.16;;
60031;Laerm;45901;47.600;9.890;2023-02-28T05:10:42;40.48;38.52;41.96;;
60031;Laerm;45901;47.600;9.890;2023-02-28T05:13:12;40.47;38.52;42.03;;
60031;Laerm;45901;47.600;9.890;2023-02-28T05:15:39;40.53;38.60;43.99;;
60031;Laerm;45901;47.600;9.890;2023-02-28T05:18:08;40.45;38.67;42.03;;
60031;Laerm;45901;47.600;9.890;2023-02-28T05:20:36;40.46;38.67;42.16;;
60031;Laerm;45901;47.600;9.890;2023-02-28T05:23:03;40.62;38.05;47.59;;
60031;Laerm;45901;47.600;9.890;2023-02-28T05:25:31;40.49;38.52;42.76;;
60031;Laerm;45901;47.600;9.890;2023-02-28T05:27:58;41.77;38.74;62.36;;
60031;Laerm;45901;47.600;9.890;2023-02-28T05:30:25;40.52;38.67;44.03;;
60031;Laerm;45901;47.600;9.890;2023-02-28T05:32:52;41.08;38.81;51.28;;
60031;Laerm;45901;47.600;9.890;2023-02-28T05:35:21;40.70;38.05;44.87;;
60031;Laerm;45901;47.600;9.890;2023-02-28T05:37:48;41.25;38.81;48.03;;
60031;Laerm;45901;47.600;9.890;2023-02-28T05:40:16;40.57;38.52;42.35;;
60031;Laerm;45901;47.600;9.890;2023-02-28T05:42:43;40.55;38.52;42.98;;
60031;Laerm;45901;47.600;9.890;2023-02-28T05:45:11;40.58;38.37;45.75;;
60031;Laerm;45901;47.600;9.890;2023-02-28T05:47:38;40.48;38.21;42.03;;
60031;Laerm;45901;47.600;9.890;2023-02-28T05:50:07;40.50;38.05;43.39;;
60031;Laerm;45901;47.600;9.890;2023-02-28T05:52:37;40.50;38.52;42.76;;
60031;Laerm;45901;47.600;9.890;2023-02-28T05:55:06;40.51;38.52;42.35;;
60031;Laerm;45901;47.600;9.890;2023-02-28T05:57:33;40.60;38.81;42.59;;
60031;Laerm;45901;47.600;9.890;2023-02-28T06:00:00;40.72;38.37;44.83;;
60031;Laerm;45901;47.600;9.890;2023-02-28T06:02:28;41.00;38.67;43.86;;
60031;Laerm;45901;47.600;9.890;2023-02-28T06:04:55;41.51;38.67;46.23;;
60031;Laerm;45901;47.600;9.890;2023-02-28T06:07:22;40.52;38.67;42.59;;
60031;Laerm;45901;47.600;9.890;2023-02-28T06:09:50;40.50;36.91;43.19;;
60031;Laerm;45901;47.600;9.890;2023-02-28T06:12:18;40.61;38.37;43.04;;
60031;Laerm;45901;47.600;9.890;2023-02-28T06:14:45;40.93;38.67;43.72;;
60031;Laerm;45901;47.600;9.890;2023-02-28T06:17:12;40.63;38.74;46.45;;
60031;Laerm;45901;47.600;9.890;2023-02-28T06:19:39;40.79;38.95;50.64;;
60031;Laerm;45901;47.600;9.890;2023-02-28T06:22:07;40.85;38.95;44.19;;
60031;Laerm;45901;47.600;9.890;2023-02-28T06:24:34;40.79;38.67;44.51;;
60031;Laerm;45901;47.600;9.890;2023-02-28T06:27:03;40.80;38.21;43.04;;
60031;Laerm;45901;47.600;9.890;2023-02-28T06:29:31;40.79;38.37;44.35;;
60031;Laerm;45901;47.600;9.890;2023-02-28T06:31:58;40.60;38.67;44.27;;
60031;Laerm;45901;47.600;9.890;2023-02-28T06:34:25;40.52;38.05;43.63;;
60031;Laerm;45901;47.600;9.890;2023-02-28T06:36:53;40.55;38.47;43.29;;
60031;Laerm;45901;47.600;9.890;2023-02-28T06:39:20;40.74;38.52;43.44;;
60031;Laerm;45901;47.600;9.890;2023-02-28T06:41:47;40.91;38.67;45.20;;
60031;Laerm;45901;47.600;9.890;2023-02-28T06:44:17;40.59;38.32;44.11;;
60031;Laerm;45901;47.600;9.890;2023-02-28T06:46:45;40.55;38.37;42.41;;
60031;Laerm;45901;47.600;9.890;2023-02-28T06:49:13;40.69;38.37;43.90;;
60031;Laerm;45901;47.600;9.890;2023-02-28T06:51:42;40.77;38.37;43.54;;
60031;Laerm;45901;47.600;9.890;2023-02-28T06:54:11;40.72;38.52;44.94;;
60031;Laerm;45901;47.600;9.890;2023-02-28T06:56:39;40.73;38.87;42.22;;
60031;Laerm;45901;47.600;9.890;2023-02-28T06:59:06;40.92;38.52;45.33;;
60031;Laerm;45901;47.600;9.890;2023-02-28T07:01:35;40.85;38.81;43.24;;
60031;Laerm;45901;47.600;9.890;2023-02-28T07:04:03;40.91;38.81;43.49;;
60031;Laerm;45901;47.600;9.890;2023-02-28T07:06:31;40.56;38.21;42.93;;
60031;Laerm;45901;47.600;9.890;2023-02-28T07:08:59;40.48;38.37;42.03;;
60031;Laerm;45901;47.600;9.890;2023-02-28T07:11:27;40.52;38.67;42.47;;
60031;Laerm;45901;47.600;9.890;2023-02-28T07:13:56;41.04;38.52;47.26;;
60031;Laerm;45901;47.600;9.890;2023-02-28T07:16:24;40.47;38.67;42.35;;
60031;Laerm;45901;47.600;9.890;2023-02-28T07:18:54;40.58;38.37;45.89;;
60031;Laerm;45901;47.600;9.890;2023-02-28T07:21:21;40.47;38.52;42.29;;
60031;Laerm;45901;47.600;9.890;2023-02-28T07:23:49;40.67;38.37;56.08;;
60031;Laerm;45901;47.600;9.890;2023-02-28T07:26:19;40.57;38.47;43.68;;
60031;Laerm;45901;47.600;9.890;2023-02-28T07:28:48;40.55;38.37;44.98;;
60031;Laerm;45901;47.600;9.890;2023-02-28T07:31:15;40.54;38.67;44.51;;
60031;Laerm;45901;47.600;9.890;2023-02-28T07:33:43;40.77;37.52;44.23;;
60031;Laerm;45901;47.600;9.890;2023-02-28T07:36:14;40.48;38.21;42.59;;
60031;Laerm;45901;47.600;9.890;2023-02-28T07:38:46;40.79;38.37;56.44;;
60031;Laerm;45901;47.600;9.890;2023-02-28T07:41:16;40.50;38.05;44.47;;
60031;Laerm;45901;47.600;9.890;2023-02-28T07:43:43;40.69;38.21;45.27;;
60031;Laerm;45901;47.600;9.890;2023-02-28T07:46:12;40.61;38.52;45.04;;
60031;Laerm;45901;47.600;9.890;2023-02-28T07:48:42;40.44;38.37;45.42;;
60031;Laerm;45901;47.600;9.890;2023-02-28T07:51:11;40.50;37.88;42.93;;
60031;Laerm;45901;47.600;9.890;2023-02-28T07:53:38;40.72;38.67;47.26;;
60031;Laerm;45901;47.600;9.890;2023-02-28T07:56:06;40.54;38.37;42.93;;
60031;Laerm;45901;47.600;9.890;2023-02-28T07:58:34;40.57;38.52;43.94;;
60031;Laerm;45901;47.600;9.890;2023-02-28T08:01:06;40.93;38.52;47.08;;
60031;Laerm;45901;47.600;9.890;2023-02-28T08:03:34;40.85;38.52;46.02;;
60031;Laerm;45901;47.600;9.890;2023-02-28T08:06:01;40.58;38.05;45.33;;
60031;Laerm;45901;47.600;9.890;2023-02-28T08:08:31;41.30;38.37;57.65;;
60031;Laerm;45901;47.600;9.890;2023-02-28T08:10:59;41.03;38.37;47.24;;
60031;Laerm;45901;47.600;9.890;2023-02-28T08:13:28;40.32;38.05;42.47;;
60031;Laerm;45901;47.600;9.890;2023-02-28T08:15:56;40.41;38.05;45.63;;
60031;Laerm;45901;47.600;9.890;2023-02-28T08:18:23;40.53;38.21;45.11;;
60031;Laerm;45901;47.600;9.890;2023-02-28T08:20:50;40.56;38.05;45.48;;
60031;Laerm;45901;47.600;9.890;2023-02-28T08:23:18;40.78;38.37;46.57;;
60031;Laerm;45901;47.600;9.890;2023-02-28T08:25:54;40.51;38.37;54.82;;
60031;Laerm;45901;47.600;9.890;2023-02-28T08:28:22;40.35;37.88;42.35;;
60031;Laerm;45901;47.600;9.890;2023-02-28T08:30:49;40.59;38.37;44.97;;
60031;Laerm;45901;47.600;9.890;2023-02-28T08:33:16;40.71;37.88;47.08;;
60031;Laerm;45901;47.600;9.890;2023-02-28T08:35:43;41.77;38.52;46.50;;
60031;Laerm;45901;47.600;9.890;2023-02-28T08:38:10;40.93;37.88;47.61;;
60031;Laerm;45901;47.600;9.890;2023-02-28T08:40:38;40.71;38.21;54.27;;
60031;Laerm;45901;47.600;9.890;2023-02-28T08:43:06;40.73;38.21;50.33;;
60031;Laerm;45901;47.600;9.890;2023-02-28T08:45:33;41.01;38.05;55.27;;
60031;Laerm;45901;47.600;9.890;2023-02-28T08:48:00;40.36;37.88;47.79;;
60031;Laerm;45901;47.600;9.890;2023-02-28T08:50:28;40.64;38.37;44.79;;
60031;Laerm;45901;47.600;9.890;2023-02-28T08:52:56;41.03;37.52;50.66;;
60031;Laerm;45901;47.600;9.890;2023-02-28T08:55:24;40.55;37.88;47.88;;
60031;Laerm;45901;47.600;9.890;2023-02-28T08:57:51;40.40;37.88;42.35;;
60031;Laerm;45901;47.600;9.890;2023-02-28T09:00:22;40.87;37.52;46.62;;
60031;Laerm;45901;47.600;9.890;2023-02-28T09:02:49;40.16;37.70;43.09;;
60031;Laerm;45901;47.600;9.890;2023-02-28T09:05:17;40.27;37.70;42.59;;
60031;Laerm;45901;47.600;9.890;2023-02-28T09:07:45;40.56;37.70;58.19;;
60031;Laerm;45901;47.600;9.890;2023-02-28T09:10:12;40.35;37.32;48.28;;
60031;Laerm;45901;47.600;9.890;2023-02-28T09:12:39;40.46;37.32;47.91;;
60031;Laerm;45901;47.600;9.890;2023-02-28T09:15:08;41.05;37.88;62.82;;
60031;Laerm;45901;47.600;9.890;2023-02-28T09:17:37;39.83;37.12;46.15;;
60031;Laerm;45901;47.600;9.890;2023-02-28T09:20:06;40.86;38.05;51.53;;
60031;Laerm;45901;47.600;9.890;2023-02-28T09:22:34;41.61;39.08;56.43;;
60031;Laerm;45901;47.600;9.890;2023-02-28T09:25:01;42.64;39.21;49.89;;
60031;Laerm;45901;47.600;9.890;2023-02-28T09:27:28;40.23;36.91;45.39;;
60031;Laerm;45901;47.600;9.890;2023-02-28T09:29:55;40.13;36.69;47.24;;
60031;Laerm;45901;47.600;9.890;2023-02-28T09:32:22;40.47;37.32;50.01;;
60031;Laerm;45901;47.600;9.890;2023-02-28T09:34:51;41.50;36.69;53.15;;
60031;Laerm;45901;47.600;9.890;2023-02-28T09:37:18;40.62;36.20;54.87;;
60031;Laerm;45901;47.600;9.890;2023-02-28T09:39:45;39.69;36.91;52.62;;
60031;Laerm;45901;47.600;9.890;2023-02-28T09:42:30;39.95;36.20;60.48;;
60031;Laerm;45901;47.600;9.890;2023-02-28T09:44:59;39.70;37.12;47.50;;
60031;Laerm;45901;47.600;9.890;2023-02-28T09:47:31;39.80;36.69;44.80;;
60031;Laerm;45901;47.600;9.890;2023-02-28T09:50:16;39.92;37.12;52.86;;
60031;Laerm;45901;47.600;9.890;2023-02-28T09:52:45;39.62;35.94;43.34;;
60031;Laerm;45901;47.600;9.890;2023-02-28T09:55:22;40.49;35.94;56.24;;
60031;Laerm;45901;47.600;9.890;2023-02-28T09:57:55;39.63;36.69;45.39;;
60031;Laerm;45901;47.600;9.890;2023-02-28T10:00:31;40.38;37.12;47.26;;
60031;Laerm;45901;47.600;9.890;2023-02-28T10:03:12;39.79;36.91;45.57;;
60031;Laerm;45901;47.600;9.890;2023-02-28T10:05:52;39.68;36.69;46.66;;
60031;Laerm;45901;47.600;9.890;2023-02-28T10:08:25;40.39;36.91;48.32;;
60031;Laerm;45901;47.600;9.890;2023-02-28T10:10:57;40.57;36.91;48.10;;
60031;Laerm;45901;47.600;9.890;2023-02-28T10:13:32;40.53;36.45;62.87;;
60031;Laerm;45901;47.600;9.890;2023-02-28T10:16:06;39.84;36.69;55.11;;
60031;Laerm;45901;47.600;9.890;2023-02-28T10:18:42;40.67;37.70;54.80;;
60031;Laerm;45901;47.600;9.890;2023-02-28T10:21:23;40.26;37.12;52.14;;
60031;Laerm;45901;47.600;9.890;2023-02-28T10:24:03;39.78;37.12;42.82;;
60031;Laerm;45901;47.600;9.890;2023-02-28T10:26:33;39.75;36.91;44.35;;
60031;Laerm;45901;47.600;9.890;2023-02-28T10:29:01;39.80;36.91;49.38;;
60031;Laerm;45901;47.600;9.890;2023-02-28T10:31:29;39.44;36.69;43.14;;
60031;Laerm;45901;47.600;9.890;2023-02-28T10:33:56;39.55;37.12;43.90;;
60031;Laerm;45901;47.600;9.890;2023-02-28T10:36:25;40.05;37.32;48.76;;
60031;Laerm;45901;47.600;9.890;2023-02-28T10:38:52;39.61;36.69;47.98;;
60031;Laerm;45901;47.600;9.890;2023-02-28T10:53:51;40.09;37.32;46.20;;
60031;Laerm;45901;47.600;9.890;2023-02-28T10:56:21;40.95;37.88;46.67;;
60031;Laerm;45901;47.600;9.890;2023-02-28T10:58:58;40.72;37.32;49.10;;
60031;Laerm;45901;47.600;9.890;2023-02-28T11:01:37;40.91;37.52;48.18;;
60031;Laerm;45901;47.600;9.890;2023-02-28T11:04:31;40.72;37.52;60.98;;
60031;Laerm;45901;47.600;9.890;2023-02-28T11:07:10;41.33;36.91;49.66;;
60031;Laerm;45901;47.600;9.890;2023-02-28T11:09:49;40.23;37.32;46.38;;
60031;Laerm;45901;47.600;9.890;2023-02-28T11:12:27;40.07;37.52;61.32;;
60031;Laerm;45901;47.600;9.890;2023-02-28T11:15:03;40.76;37.70;49.53;;
60031;Laerm;45901;47.600;9.890;2023-02-28T11:17:36;40.95;37.52;63.65;;
60031;Laerm;45901;47.600;9.890;2023-02-28T11:20:34;39.98;37.32;44.19;;
60031;Laerm;45901;47.600;9.890;2023-02-28T11:31:24;40.26;36.91;54.21;;
60031;Laerm;45901;47.600;9.890;2023-02-28T11:33:58;41.99;37.88;71.64;;
60031;Laerm;45901;47.600;9.890;2023-02-28T11:36:28;40.06;37.52;45.01;;
60031;Laerm;45901;47.600;9.890;2023-02-28T11:55:11;42.05;37.70;62.04;;
60031;Laerm;45901;47.600;9.890;2023-02-28T12:01:54;41.17;37.32;65.29;;
60031;Laerm;45901;47.600;9.890;2023-02-28T12:04:46;41.19;37.88;66.25;;
60031;Laerm;45901;47.600;9.890;2023-02-28T12:08:25;40.47;37.12;59.82;;
60031;Laerm;45901;47.600;9.890;2023-02-28T12:11:48;40.80;37.52;55.11;;
60031;Laerm;45901;47.600;9.890;2023-02-28T12:14:54;41.53;38.37;55.19;;
60031;Laerm;45901;47.600;9.890;2023-02-28T12:17:42;40.97;37.88;56.56;;
60031;Laerm;45901;47.600;9.890;2023-02-28T12:20:24;40.83;38.05;52.86;;
60031;Laerm;45901;47.600;9.890;2023-02-28T12:23:07;40.74;37.70;53.75;;
60031;Laerm;45901;47.600;9.890;2023-02-28T12:25:53;40.53;37.88;46.71;;
60031;Laerm;45901;47.600;9.890;2023-02-28T12:28:33;40.43;37.52;51.56;;
60031;Laerm;45901;47.600;9.890;2023-02-28T12:31:29;40.88;37.70;56.20;;
60031;Laerm;45901;47.600;9.890;2023-02-28T12:34:15;40.72;37.12;58.02;;
60031;Laerm;45901;47.600;9.890;2023-02-28T12:36:46;40.30;37.12;48.61;;
60031;Laerm;45901;47.600;9.890;2023-02-28T12:39:33;40.28;37.52;47.74;;
60031;Laerm;45901;47.600;9.890;2023-02-28T12:42:11;40.41;37.52;49.64;;
60031;Laerm;45901;47.600;9.890;2023-02-28T12:44:51;42.44;37.70;54.04;;
60031;Laerm;45901;47.600;9.890;2023-02-28T12:47:20;41.55;38.05;53.98;;
60031;Laerm;45901;47.600;9.890;2023-02-28T12:49:52;40.96;38.37;50.12;;
60031;Laerm;45901;47.600;9.890;2023-02-28T12:52:27;40.91;38.67;48.74;;
60031;Laerm;45901;47.600;9.890;2023-02-28T12:55:02;41.12;38.67;50.54;;
60031;Laerm;45901;47.600;9.890;2023-02-28T12:57:37;40.91;37.88;49.88;;
60031;Laerm;45901;47.600;9.890;2023-02-28T13:00:13;41.26;38.05;59.21;;
60031;Laerm;45901;47.600;9.890;2023-02-28T13:03:10;40.74;37.52;50.98;;
60031;Laerm;45901;47.600;9.890;2023-02-28T13:06:10;40.72;38.32;51.91;;
60031;Laerm;45901;47.600;9.890;2023-02-28T13:09:07;40.89;38.21;46.35;;
60031;Laerm;45901;47.600;9.890;2023-02-28T13:11:40;42.23;38.05;56.76;;
60031;Laerm;45901;47.600;9.890;2023-02-28T13:14:30;40.95;38.05;53.48;;
60031;Laerm;45901;47.600;9.890;2023-02-28T13:17:11;40.72;37.32;56.72;;
60031;Laerm;45901;47.600;9.890;2023-02-28T13:19:43;40.89;37.70;50.47;;
60031;Laerm;45901;47.600;9.890;2023-02-28T13:22:21;41.20;37.70;49.60;;
60031;Laerm;45901;47.600;9.890;2023-02-28T13:25:57;42.08;38.21;52.27;;
60031;Laerm;45901;47.600;9.890;2023-02-28T13:29:00;41.63;38.81;55.18;;
60031;Laerm;45901;47.600;9.890;2023-02-28T13:35:47;41.86;39.34;47.76;;
60031;Laerm;45901;47.600;9.890;2023-02-28T13:38:37;43.31;38.37;53.73;;
60031;Laerm;45901;47.600;9.890;2023-02-28T13:41:45;41.40;38.32;48.39;;
60031;Laerm;45901;47.600;9.890;2023-02-28T13:44:15;41.63;38.67;49.52;;
60031;Laerm;45901;47.600;9.890;2023-02-28T13:47:32;41.92;38.05;48.92;;
60031;Laerm;45901;47.600;9.890;2023-02-28T13:50:33;41.96;38.81;49.35;;
60031;Laerm;45901;47.600;9.890;2023-02-28T13:53:49;41.83;38.81;49.12;;
60031;Laerm;45901;47.600;9.890;2023-02-28T13:56:30;41.95;38.37;50.10;;
60031;Laerm;45901;47.600;9.890;2023-02-28T13:59:08;42.49;39.08;50.74;;
60031;Laerm;45901;47.600;9.890;2023-02-28T14:02:00;41.82;38.52;48.66;;
60031;Laerm;45901;47.600;9.890;2023-02-28T14:05:01;41.60;38.67;50.00;;
60031;Laerm;45901;47.600;9.890;2023-02-28T14:07:33;42.13;38.95;49.60;;
60031;Laerm;45901;47.600;9.890;2023-02-28T14:10:15;42.12;38.81;50.33;;
60031;Laerm;45901;47.600;9.890;2023-02-28T14:13:03;42.08;38.95;49.30;;
60031;Laerm;45901;47.600;9.890;2023-02-28T14:15:49;42.06;39.08;48.60;;
60031;Laerm;45901;47.600;9.890;2023-02-28T14:18:29;42.24;38.81;48.23;;
60031;Laerm;45901;47.600;9.890;2023-02-28T14:21:10;42.23;38.52;47.32;;
60031;Laerm;45901;47.600;9.890;2023-02-28T14:27:21;41.85;39.08;48.18;;
60031;Laerm;45901;47.600;9.890;2023-02-28T14:33:04;42.29;39.70;46.80;;
60031;Laerm;45901;47.600;9.890;2023-02-28T14:38:46;41.23;38.21;47.02;;
60031;Laerm;45901;47.600;9.890;2023-02-28T14:41:23;41.24;38.21;46.28;;
60031;Laerm;45901;47.600;9.890;2023-02-28T14:43:55;41.72;38.52;50.14;;
60031;Laerm;45901;47.600;9.890;2023-02-28T14:46:26;41.24;37.70;45.80;;
60031;Laerm;45901;47.600;9.890;2023-02-28T14:48:56;41.52;37.70;49.11;;
60031;Laerm;45901;47.600;9.890;2023-02-28T14:51:24;41.41;38.05;48.91;;
60031;Laerm;45901;47.600;9.890;2023-02-28T14:53:57;41.48;37.70;47.61;;
60031;Laerm;45901;47.600;9.890;2023-02-28T14:56:35;41.69;38.37;47.20;;
60031;Laerm;45901;47.600;9.890;2023-02-28T14:59:06;41.22;37.87;49.93;;
60031;Laerm;45901;47.600;9.890;2023-02-28T15:01:49;40.34;36.91;51.10;;
60031;Laerm;45901;47.600;9.890;2023-02-28T15:04:24;40.28;37.12;46.45;;
60031;Laerm;45901;47.600;9.890;2023-02-28T15:07:08;39.71;36.91;43.09;;
60031;Laerm;45901;47.600;9.890;2023-02-28T15:09:35;39.75;37.12;46.78;;
60031;Laerm;45901;47.600;9.890;2023-02-28T15:12:02;39.77;36.91;44.73;;
60031;Laerm;45901;47.600;9.890;2023-02-28T15:14:31;40.06;37.12;47.04;;
60031;Laerm;45901;47.600;9.890;2023-02-28T15:17:03;40.13;37.12;47.67;;